Timeline UpdatesTrip UpdatesNews PostsPvt Posts♥♥Travel TipsAdmin PostsConv PostsFollowed PostsChat RequestsBlog PostsPNR Posts

Disclaimer
Search
 
 
Sun Nov 23, 2014 12:49:50 ISTHomeTrainsΣChainsAtlasPNRForumGalleryNewsFAQTripsMembersLoginFeedback
No Recent News for this Train
Other Trains in the News **new
Latest...
Cancelled from 31/12/14-15/2/15 #1263410
Sat Nov 01, 2014 (07:19PM)
⇐ Return Journey: Train# 15484

14083⇒15483/Sikkim Mahananda Express

Nov 23 departure has been Rescheduled to start 10h 10m late
New Time: 20:00
NO Time-Table Change.
Nov 01 (7:19PM)
Change Departure Station:
Change Arrival Station:
Post a Train Travel TipPost a Train Travel Tip **new
Post a Comment/Question/Picture/VideoPost a Comment/Question/Picture/Video
Pantry/Catering
✓ Pantry Car Avbl
✓ Catering Avbl
RSA - Rake Sharing
Rake/Coach Composition
LOCO-SLR-GS-GS-GS-AB-B1-PC-S11-S10-S9-S8-S7-S6-S5-S4-S3-S2-S1-GS-GS-GS-SLR
Loco
SGUJ WDP-4 (APDJ to PNBE), GZB/MGS WAP-4 (PNBE to DLI)
News    PNR    Forum    Time-Table    Availability    Fare Chart    Map    Arr/Dep History    Trips    Gallery    ΣChains    X/O    Timeline    
Travel Time: 10h 15m    16 halts    Distance: 435 km    Avg Speed: 42 km/hr
Type: Mail/Express
Zone: NFR/Northeast Frontier
Departs @ 12:25 (Avg 4h 19m late)
Platform# 5
SMTWTFS
Kanpur Central/CNB 
Arrives @ 22:40 (Avg 3h 0m late)
Platform# 11
SMTWTFS
Old Delhi Junction/DLI 

16 halts. 64 intermediate Stations between Kanpur Central and Old Delhi Junction

Show ALL intermediate Stations  

#TrkCodeStation NameX/OArrivesAvgDepartsAvgHaltPFDay#KmSpeedElevZoneAddress
1|--|APDJAlipur Duar Junction (3)  -09:50+3:3411-1217.17053mNFRDist - Alipurduar, West Bengal
2|--|HSAHasimara (3)X  10:20+3:3510:22+3:362m--1-1182.363123mNFRDist - Alipurduar, West Bengal
3|--|DLODalgaon (3)  10:46+3:4210:47+3:441m11-1157.038 NFRDist : Alipurduar, West Bengal
4|--|BNVBinnaguri (3)  11:01+3:3711:02+3:271m--1-1148.165132mNFRDist : jalpaiguri, West Bengal
5|--|NMZNew Mal Junction (3)  11:43+3:2211:48+3:215m--1-1103.743161mNFRDist - Jalpaiguri, West Bengal
6|--|SGUJSiliguri Junction (6)X  12:55+3:2413:00+3:085m--1-1055.912120mNFRDist - Darjeeling, West Bengal
7|--|NJPNew Jalpaiguri Junction (8)X  13:35+3:1413:55+3:1520m31-1048.777114mNFRCity-Siliguri . Dist-Jalpaiguri, West Bengal
8%==%AUBAluabari Road (2)O  14:39+3:2314:41+3:122m21-991.9630mNFRDist - uttar Dinajpur, West Bengal
9%==%KNEKishanGanj (3)O  15:10+3:2315:15+3:235m21-961.37152mNFRKishanganj, Bihar
10%==%DLKDalkhola (3)X  15:39+3:2615:40+3:271m101-932.85844mNFRDalkola, West Bengal
11%==%BOEBarsoi Junction (3)X  16:10+3:2816:12+3:302m--1-903.85337mNFRdist- katihar, Bihar
12%==%AZRAzamnagar Road (3)X  16:27+3:3016:28+3:321m--1-890.43134mNFRAzamnagar, Bihar
13%--%LAVLabha (2)  17:10+3:3117:11+3:331m11-868.71529mNFRDist : Katihar, Bihar
14%--%KIRKatihar Junction (7)X  18:45+3:2219:00+3:2515m51-845.84635mNFRKatihar 854105, Bihar
15%-=%SMOSemapurX  19:15+3:1119:16+3:121m--1-834.26535mECRKatihar, Bihar
16%==%CRRKaragola Road  19:26+3:1419:27+3:161m--1-823.57836mECRLachhmipur, Bihar
17%=-%KUEKurselaX  19:40+3:2219:41+3:241m--1-806.54831mECRNH 31, Bihar
18%==%NNANaugachia (3)X  20:04+3:2420:05+3:251m--1-788.06437mECRBhagalpur, Bihar
19%==%THBThana Bihpur Junction (3)  20:20+3:2920:21+3:311m--1-772.15139mECRThana Bihpur, Bihar
20%==%NNRNarayanpur (2)X  20:30+3:3320:31+3:251m--1-764.55439mECRNarayanpur, Bihar
21%==%PSRPasraha (3)  20:44+3:2620:45+3:291m--1-752.85341mECRPasraha, Bihar
22%==%MSKMahes Khunt (2)X  20:59+3:3321:00+3:381m--1-740.55737mECRMaheshkhunt, Bihar
23%==%MNEMansi Junction (4)XO  21:11+3:4021:12+3:441m--1-730.13343mECRMansi, Bihar
24%=-|KGGKhagaria Junction (3)X  21:28+3:4921:29+3:521m--1-721.36243mECRKhagaria, Bihar
25%==%SKJSahibpur Kamal Junction (2)  21:41+3:5421:42+3:531m--1-708.94241mECRShahpur Kamal, Bihar
26%==%LKNLakhminia (3)X  21:56+3:5221:57+3:531m--1-699.23645mECRBegusarai, Bihar
27%==%BGSBegusarai (3)  22:27+3:2922:28+3:301m--1-681.42246mECRBegusarai, Bihar
28%--/BJUBarauni Junction (9)X  23:05+3:1123:10+3:145m11-668.02849mECRBegusarai, Bihar
29/--/MKAMokama Junction (4)  23:54+4:1223:56+4:132m31-647.38848mECRPatna, Bihar
30/==/BKPBakhtiyarpur Junction (5)X  00:26+4:0700:28+4:092m--2-603.44851mECRPatna, Bihar
31/==/PNBEPatna Junction (10)X  01:25+3:4101:50+3:4525m42-558.03557mECRPatna 800001, Bihar
32/==/DNRDanapur (5)  02:06+3:5702:08+3:572m--2-548.79158mECRKhagaul, Bihar
33/==/ARAAra Junction (3)X  02:34+4:1102:36+4:112m--2-509.17163mECRDistt: Bhojpur Ph 06182-233411, Bihar
34/==/BXRBuxar (3)X  03:34+3:5303:36+3:532m22-440.64767mECRBuxar, Bihar
35/==/MGSMughal Sarai Junction (8)  05:35+3:3505:45+3:3810m42-346.74583mECRDistt: Chandauli Pin 232101, Uttar Pradesh
36/==/MZPMirzapur (3)XO  07:09+3:5307:10+3:551m--2-283.54088mNCRMirzapur, Uttar Pradesh
37/==/BDLVindhyachal (3)  07:21+3:1907:22+3:221m--2-276.27788mNCRMirzapur, Uttar Pradesh
38/==/NYNNaini Junction (4)  08:20+4:3308:22+4:332m22-201.42498mNCRAllahabad, Uttar Pradesh
39/==/ALDAllahabad Junction (10)XOO  08:40+4:2108:55+4:2815m32-194.364100mNCRAllahabad 211003, Uttar Pradesh
40/==/FTPFatehpur (3)  10:44+4:0810:45+4:101m--2-77.652120mNCRFatehpur, Uttar Pradesh
41/==/CNBKanpur Central (10)»X  12:15+4:1612:25+4:1910m520.029128mNCRKANPUR-208 001, Uttar Pradesh
42/==/PNKPanki (3)XO  12:49+3:4412:50+3:451m--211.537129mNCRKANPUR-208 020, Uttar Pradesh
43/==/RURARura (4)  13:43+3:2513:44+3:281m--244.357137mNCRJhinjhak, Uttar Pradesh
44/==/JJKJhinjhak (3)  14:04+3:1914:05+3:211m3263.470140mNCRAuraiya, Uttar Pradesh
45/==/PHDPhaphund (4)  14:22+4:0414:23+4:091m--283.263146mNCRdist. Auraiya, Uttar Pradesh
46/==/ULDAchalda (3)  14:39+3:2714:40+3:321m--2100.065147mNCRDist. Auraiya(05688-1072), Uttar Pradesh
47/==/BNTBharthana (3)  14:58+3:0514:59+3:101m--2119.552147mNCRBharthana, Uttar Pradesh
48/==/ETWEtawah (5)  15:22+3:4215:23+3:441m22139.474154mNCRDistt. Etawah, Uttar Pradesh
49/==/SKBShikohabad Junction (4)  16:08+3:1316:09+3:141m32194.857166mNCRDistrict Firozabad, Uttar Pradesh
50/==/FZDFirozabad (4)XO  16:30+3:5116:31+3:561m32214.616164mNCRFirozabad, Uttar Pradesh
51/==/TDLTundla Junction (5)XO  17:35+3:4317:45+3:4210m22231.270167mNCRDistt.Firozabad, Uttar Pradesh
52/==/JLSJalesar Road (1)X  18:09+2:2618:10+2:271m12259.155172mNCRMDR 106W, Uttar Pradesh
53/==/HRSHathras Junction (3)X  18:32+2:3518:33+2:361m--2279.282183mNCRMahamaya Nagar(05722-242803), Uttar Pradesh
54/==/ALJNAligarh Junction (4)O  18:55+2:3819:00+2:385m22309.349192mNCRAligarh, Uttar Pradesh
55/==/KRJKhurja Junction (4)XO  19:53+1:1519:58+1:165m--2352.835199mNCRBulandshahr, Uttar Pradesh
56/==/GZBGhaziabad Junction (6)X  21:45+2:2821:47+2:282m32415.548217mNRGhaziabad, Uttar Pradesh
57/==/DSAShahdara Junction (4)  22:04+3:5622:05+3:561m--2429.111212mNRCircular Rd, Delhi NCT
58/==/DLIOld Delhi Junction (16)•  22:40+3:00-112435.4-219mNRNear Chandni Chowk Metro Station, Delhi NCT
Scroll to Top
Scroll to Bottom